sensor_id;sensor_type;location;lat;lon;timestamp;pressure;altitude;pressure_sealevel;temperature;humidity
58243;BME280;50118;53.232;8.252;2023-05-19T00:00:57;102719.31;;;5.35;100.00
58243;BME280;50118;53.232;8.252;2023-05-19T00:03:23;102722.88;;;5.34;100.00
58243;BME280;50118;53.232;8.252;2023-05-19T00:05:51;102720.34;;;5.31;100.00
58243;BME280;50118;53.232;8.252;2023-05-19T00:08:18;102723.09;;;5.28;100.00
58243;BME280;50118;53.232;8.252;2023-05-19T00:10:44;102731.97;;;5.27;100.00
58243;BME280;50118;53.232;8.252;2023-05-19T00:13:09;102721.69;;;5.19;100.00
58243;BME280;50118;53.232;8.252;2023-05-19T00:15:35;102724.34;;;5.19;100.00
58243;BME280;50118;53.232;8.252;2023-05-19T00:18:01;102722.75;;;5.15;100.00
58243;BME280;50118;53.232;8.252;2023-05-19T00:20:26;102723.72;;;5.12;100.00
58243;BME280;50118;53.232;8.252;2023-05-19T00:22:52;102724.72;;;5.10;100.00
58243;BME280;50118;53.232;8.252;2023-05-19T00:25:17;102719.50;;;5.08;100.00
58243;BME280;50118;53.232;8.252;2023-05-19T00:27:43;102726.75;;;5.03;100.00
58243;BME280;50118;53.232;8.252;2023-05-19T00:30:08;102721.47;;;5.03;100.00
58243;BME280;50118;53.232;8.252;2023-05-19T00:32:34;102718.13;;;4.98;100.00
58243;BME280;50118;53.232;8.252;2023-05-19T00:34:59;102717.34;;;4.96;100.00
58243;BME280;50118;53.232;8.252;2023-05-19T00:37:25;102719.31;;;4.91;100.00
58243;BME280;50118;53.232;8.252;2023-05-19T00:39:51;102716.78;;;4.88;100.00
58243;BME280;50118;53.232;8.252;2023-05-19T00:42:20;102713.41;;;4.84;100.00
58243;BME280;50118;53.232;8.252;2023-05-19T00:44:45;102708.19;;;4.82;100.00
58243;BME280;50118;53.232;8.252;2023-05-19T00:47:11;102714.47;;;4.78;100.00
58243;BME280;50118;53.232;8.252;2023-05-19T00:49:36;102696.25;;;4.72;100.00
58243;BME280;50118;53.232;8.252;2023-05-19T00:52:02;102710.25;;;4.74;100.00
58243;BME280;50118;53.232;8.252;2023-05-19T00:54:30;102704.19;;;4.72;100.00
58243;BME280;50118;53.232;8.252;2023-05-19T00:56:58;102708.66;;;4.70;100.00
58243;BME280;50118;53.232;8.252;2023-05-19T00:59:24;102699.13;;;4.66;100.00
58243;BME280;50118;53.232;8.252;2023-05-19T01:01:49;102714.97;;;4.66;100.00
58243;BME280;50118;53.232;8.252;2023-05-19T01:04:18;102714.22;;;4.62;100.00
58243;BME280;50118;53.232;8.252;2023-05-19T01:06:46;102702.81;;;4.62;100.00
58243;BME280;50118;53.232;8.252;2023-05-19T01:09:11;102718.53;;;4.65;100.00
58243;BME280;50118;53.232;8.252;2023-05-19T01:11:37;102701.19;;;4.58;100.00
58243;BME280;50118;53.232;8.252;2023-05-19T01:14:02;102710.38;;;4.47;100.00
58243;BME280;50118;53.232;8.252;2023-05-19T01:16:35;102706.13;;;4.43;100.00
58243;BME280;50118;53.232;8.252;2023-05-19T01:30:37;102694.38;;;4.28;100.00
58243;BME280;50118;53.232;8.252;2023-05-19T01:33:06;102689.19;;;4.25;100.00
58243;BME280;50118;53.232;8.252;2023-05-19T01:35:34;102691.88;;;4.24;100.00
58243;BME280;50118;53.232;8.252;2023-05-19T01:38:02;102694.59;;;4.22;100.00
58243;BME280;50118;53.232;8.252;2023-05-19T01:40:28;102693.03;;;4.17;100.00
58243;BME280;50118;53.232;8.252;2023-05-19T01:42:58;102700.09;;;4.16;100.00
58243;BME280;50118;53.232;8.252;2023-05-19T01:45:27;102705.44;;;4.15;100.00
58243;BME280;50118;53.232;8.252;2023-05-19T01:47:55;102702.72;;;4.16;100.00
58243;BME280;50118;53.232;8.252;2023-05-19T01:50:21;102707.97;;;4.18;100.00
58243;BME280;50118;53.232;8.252;2023-05-19T01:52:47;102708.91;;;4.15;100.00
58243;BME280;50118;53.232;8.252;2023-05-19T01:55:12;102713.69;;;4.05;100.00
58243;BME280;50118;53.232;8.252;2023-05-19T02:03:52;102710.09;;;4.06;100.00
58243;BME280;50118;53.232;8.252;2023-05-19T02:06:44;102712.84;;;4.03;100.00
58243;BME280;50118;53.232;8.252;2023-05-19T02:09:24;102715.44;;;4.05;100.00
58243;BME280;50118;53.232;8.252;2023-05-19T02:14:36;102710.66;;;4.16;100.00
58243;BME280;50118;53.232;8.252;2023-05-19T02:17:03;102708.06;;;4.15;100.00
58243;BME280;50118;53.232;8.252;2023-05-19T02:19:32;102708.91;;;4.15;100.00
58243;BME280;50118;53.232;8.252;2023-05-19T02:21:58;102702.88;;;4.11;100.00
58243;BME280;50118;53.232;8.252;2023-05-19T02:24:23;102701.19;;;4.10;100.00
58243;BME280;50118;53.232;8.252;2023-05-19T02:26:49;102707.41;;;4.08;100.00
58243;BME280;50118;53.232;8.252;2023-05-19T02:29:15;102708.50;;;4.02;100.00
58243;BME280;50118;53.232;8.252;2023-05-19T02:31:41;102699.91;;;3.97;100.00
58243;BME280;50118;53.232;8.252;2023-05-19T02:34:06;102697.25;;;3.97;100.00
58243;BME280;50118;53.232;8.252;2023-05-19T02:36:33;102708.81;;;3.93;100.00
58243;BME280;50118;53.232;8.252;2023-05-19T02:38:59;102703.44;;;3.96;100.00
58243;BME280;50118;53.232;8.252;2023-05-19T02:41:26;102694.84;;;3.91;100.00
58243;BME280;50118;53.232;8.252;2023-05-19T02:43:52;102703.78;;;3.87;100.00
58243;BME280;50118;53.232;8.252;2023-05-19T02:46:17;102702.16;;;3.83;100.00
58243;BME280;50118;53.232;8.252;2023-05-19T02:48:44;102686.66;;;3.73;100.00
58243;BME280;50118;53.232;8.252;2023-05-19T02:51:09;102694.72;;;3.69;100.00
58243;BME280;50118;53.232;8.252;2023-05-19T02:53:35;102696.34;;;3.73;100.00
58243;BME280;50118;53.232;8.252;2023-05-19T02:56:00;102698.34;;;3.66;100.00
58243;BME280;50118;53.232;8.252;2023-05-19T02:58:25;102691.13;;;3.71;100.00
58243;BME280;50118;53.232;8.252;2023-05-19T03:00:51;102687.84;;;3.65;100.00
58243;BME280;50118;53.232;8.252;2023-05-19T03:03:16;102687.09;;;3.61;100.00
58243;BME280;50118;53.232;8.252;2023-05-19T03:05:42;102687.94;;;3.62;100.00
58243;BME280;50118;53.232;8.252;2023-05-19T03:08:07;102695.94;;;3.59;100.00
58243;BME280;50118;53.232;8.252;2023-05-19T03:10:34;102689.91;;;3.55;100.00
58243;BME280;50118;53.232;8.252;2023-05-19T03:12:59;102688.31;;;3.51;100.00
58243;BME280;50118;53.232;8.252;2023-05-19T03:15:24;102679.53;;;3.50;100.00
58243;BME280;50118;53.232;8.252;2023-05-19T03:17:50;102695.34;;;3.50;100.00
58243;BME280;50118;53.232;8.252;2023-05-19T03:20:16;102679.69;;;3.46;100.00
58243;BME280;50118;53.232;8.252;2023-05-19T03:22:41;102685.88;;;3.45;100.00
58243;BME280;50118;53.232;8.252;2023-05-19T03:25:07;102689.13;;;3.53;100.00
58243;BME280;50118;53.232;8.252;2023-05-19T03:27:33;102690.94;;;3.51;100.00
58243;BME280;50118;53.232;8.252;2023-05-19T03:29:58;102694.38;;;3.53;100.00
58243;BME280;50118;53.232;8.252;2023-05-19T03:32:23;102690.81;;;3.54;100.00
58243;BME280;50118;53.232;8.252;2023-05-19T03:34:49;102690.81;;;3.54;100.00
58243;BME280;50118;53.232;8.252;2023-05-19T03:37:14;102690.06;;;3.50;100.00
58243;BME280;50118;53.232;8.252;2023-05-19T03:39:40;102696.31;;;3.48;100.00
58243;BME280;50118;53.232;8.252;2023-05-19T03:42:05;102691.13;;;3.45;100.00
58243;BME280;50118;53.232;8.252;2023-05-19T03:44:31;102688.09;;;3.57;100.00
58243;BME280;50118;53.232;8.252;2023-05-19T03:46:56;102694.81;;;3.66;100.00
58243;BME280;50118;53.232;8.252;2023-05-19T03:49:21;102691.47;;;3.61;100.00
58243;BME280;50118;53.232;8.252;2023-05-19T03:51:47;102697.25;;;3.72;100.00
58243;BME280;50118;53.232;8.252;2023-05-19T03:54:12;102691.84;;;3.77;100.00
58243;BME280;50118;53.232;8.252;2023-05-19T03:56:38;102697.94;;;3.77;100.00
58243;BME280;50118;53.232;8.252;2023-05-19T03:59:05;102705.00;;;3.77;100.00
58243;BME280;50118;53.232;8.252;2023-05-19T04:01:32;102696.88;;;3.83;100.00
58243;BME280;50118;53.232;8.252;2023-05-19T04:03:58;102702.63;;;3.94;100.00
58243;BME280;50118;53.232;8.252;2023-05-19T04:06:23;102693.69;;;3.98;100.00
58243;BME280;50118;53.232;8.252;2023-05-19T04:08:49;102702.47;;;3.99;100.00
58243;BME280;50118;53.232;8.252;2023-05-19T04:11:14;102698.41;;;3.90;100.00
58243;BME280;50118;53.232;8.252;2023-05-19T04:13:40;102698.81;;;4.03;100.00
58243;BME280;50118;53.232;8.252;2023-05-19T04:16:05;102694.03;;;4.14;100.00
58243;BME280;50118;53.232;8.252;2023-05-19T04:18:31;102698.78;;;4.28;100.00
58243;BME280;50118;53.232;8.252;2023-05-19T04:20:56;102697.81;;;4.30;100.00
58243;BME280;50118;53.232;8.252;2023-05-19T04:23:22;102698.69;;;4.31;100.00
58243;BME280;50118;53.232;8.252;2023-05-19T04:25:48;102698.22;;;4.43;100.00
58243;BME280;50118;53.232;8.252;2023-05-19T04:28:14;102703.97;;;4.55;100.00
58243;BME280;50118;53.232;8.252;2023-05-19T04:30:43;102698.53;;;4.58;100.00
58243;BME280;50118;53.232;8.252;2023-05-19T04:33:10;102698.78;;;4.75;100.00
58243;BME280;50118;53.232;8.252;2023-05-19T04:35:37;102700.22;;;5.06;100.00
58243;BME280;50118;53.232;8.252;2023-05-19T04:38:04;102706.66;;;4.99;100.00
58243;BME280;50118;53.232;8.252;2023-05-19T04:40:29;102702.84;;;5.28;100.00
58243;BME280;50118;53.232;8.252;2023-05-19T04:42:55;102696.31;;;5.37;100.00
58243;BME280;50118;53.232;8.252;2023-05-19T04:45:21;102703.16;;;5.84;100.00
58243;BME280;50118;53.232;8.252;2023-05-19T04:47:47;102700.53;;;6.44;100.00
58243;BME280;50118;53.232;8.252;2023-05-19T04:50:13;102700.03;;;7.46;100.00
58243;BME280;50118;53.232;8.252;2023-05-19T04:52:39;102692.13;;;8.48;100.00
58243;BME280;50118;53.232;8.252;2023-05-19T04:55:07;102691.66;;;9.50;100.00
58243;BME280;50118;53.232;8.252;2023-05-19T04:57:32;102694.66;;;11.03;100.00
58243;BME280;50118;53.232;8.252;2023-05-19T04:59:58;102705.78;;;11.50;86.88
58243;BME280;50118;53.232;8.252;2023-05-19T05:02:25;102705.81;;;12.53;87.35
58243;BME280;50118;53.232;8.252;2023-05-19T05:04:52;102707.16;;;13.08;79.36
58243;BME280;50118;53.232;8.252;2023-05-19T05:07:21;102699.44;;;13.04;72.95
58243;BME280;50118;53.232;8.252;2023-05-19T05:09:53;102700.88;;;12.97;77.64
58243;BME280;50118;53.232;8.252;2023-05-19T05:12:24;102695.91;;;13.52;77.19
58243;BME280;50118;53.232;8.252;2023-05-19T05:15:29;102700.69;;;14.29;70.98
58243;BME280;50118;53.232;8.252;2023-05-19T05:18:13;102702.22;;;14.88;65.12
58243;BME280;50118;53.232;8.252;2023-05-19T05:25:08;102705.16;;;15.82;59.70
58243;BME280;50118;53.232;8.252;2023-05-19T05:27:17;102708.03;;;15.37;65.00
58243;BME280;50118;53.232;8.252;2023-05-19T05:29:43;102706.97;;;16.02;60.03
58243;BME280;50118;53.232;8.252;2023-05-19T05:32:08;102705.25;;;16.73;58.82
58243;BME280;50118;53.232;8.252;2023-05-19T05:34:34;102708.69;;;14.97;60.63
58243;BME280;50118;53.232;8.252;2023-05-19T05:37:02;102706.38;;;15.57;60.19
58243;BME280;50118;53.232;8.252;2023-05-19T05:39:27;102714.78;;;16.36;59.04
58243;BME280;50118;53.232;8.252;2023-05-19T05:46:10;102706.50;;;13.29;70.97
58243;BME280;50118;53.232;8.252;2023-05-19T05:49:27;102703.13;;;15.09;66.57
58243;BME280;50118;53.232;8.252;2023-05-19T05:55:53;102692.63;;;13.95;66.98
58243;BME280;50118;53.232;8.252;2023-05-19T05:58:22;102694.59;;;12.98;72.44
58243;BME280;50118;53.232;8.252;2023-05-19T06:01:24;102704.34;;;14.39;68.54
58243;BME280;50118;53.232;8.252;2023-05-19T06:04:48;102699.28;;;15.02;61.79
58243;BME280;50118;53.232;8.252;2023-05-19T06:08:05;102699.34;;;14.68;66.59
58243;BME280;50118;53.232;8.252;2023-05-19T06:13:44;102697.66;;;15.00;64.17
58243;BME280;50118;53.232;8.252;2023-05-19T06:19:21;102689.41;;;15.56;63.29
58243;BME280;50118;53.232;8.252;2023-05-19T06:22:25;102686.00;;;15.96;60.88
58243;BME280;50118;53.232;8.252;2023-05-19T06:24:58;102700.09;;;15.14;64.52
58243;BME280;50118;53.232;8.252;2023-05-19T06:27:24;102695.19;;;14.53;66.17
58243;BME280;50118;53.232;8.252;2023-05-19T06:29:52;102700.69;;;15.92;59.27
58243;BME280;50118;53.232;8.252;2023-05-19T06:32:18;102691.16;;;16.40;59.14
58243;BME280;50118;53.232;8.252;2023-05-19T06:34:43;102691.19;;;17.39;54.40
58243;BME280;50118;53.232;8.252;2023-05-19T06:37:09;102699.94;;;15.90;59.83
58243;BME280;50118;53.232;8.252;2023-05-19T06:39:36;102705.81;;;16.76;58.87
58243;BME280;50118;53.232;8.252;2023-05-19T06:42:13;102702.78;;;16.60;56.95
58243;BME280;50118;53.232;8.252;2023-05-19T06:45:05;102701.06;;;16.90;58.63
58243;BME280;50118;53.232;8.252;2023-05-19T06:47:34;102710.72;;;17.41;55.01
58243;BME280;50118;53.232;8.252;2023-05-19T06:49:59;102694.53;;;17.90;53.57
58243;BME280;50118;53.232;8.252;2023-05-19T06:52:27;102704.13;;;18.12;52.40
58243;BME280;50118;53.232;8.252;2023-05-19T06:54:53;102698.97;;;18.74;50.83
58243;BME280;50118;53.232;8.252;2023-05-19T06:57:19;102704.53;;;18.17;53.82
58243;BME280;50118;53.232;8.252;2023-05-19T06:59:48;102704.53;;;19.00;49.39
58243;BME280;50118;53.232;8.252;2023-05-19T07:02:13;102688.59;;;16.08;56.69
58243;BME280;50118;53.232;8.252;2023-05-19T07:04:42;102696.78;;;14.67;63.05
58243;BME280;50118;53.232;8.252;2023-05-19T07:07:14;102703.25;;;15.08;64.90
58243;BME280;50118;53.232;8.252;2023-05-19T07:09:59;102693.53;;;17.71;54.51
58243;BME280;50118;53.232;8.252;2023-05-19T07:12:54;102704.94;;;16.16;58.07
58243;BME280;50118;53.232;8.252;2023-05-19T07:15:20;102702.88;;;16.39;58.70
58243;BME280;50118;53.232;8.252;2023-05-19T07:17:45;102702.03;;;15.65;60.24
58243;BME280;50118;53.232;8.252;2023-05-19T07:20:12;102700.25;;;15.87;61.17
58243;BME280;50118;53.232;8.252;2023-05-19T07:26:10;102711.22;;;16.05;59.54
58243;BME280;50118;53.232;8.252;2023-05-19T07:31:59;102703.09;;;14.77;68.30
58243;BME280;50118;53.232;8.252;2023-05-19T07:34:27;102704.72;;;14.68;66.29
58243;BME280;50118;53.232;8.252;2023-05-19T07:36:56;102698.22;;;14.48;67.07
58243;BME280;50118;53.232;8.252;2023-05-19T07:39:21;102709.53;;;15.29;68.95
58243;BME280;50118;53.232;8.252;2023-05-19T07:41:54;102699.31;;;15.23;66.04
58243;BME280;50118;53.232;8.252;2023-05-19T07:44:20;102695.66;;;15.24;68.70
58243;BME280;50118;53.232;8.252;2023-05-19T07:47:06;102686.88;;;15.76;65.26
58243;BME280;50118;53.232;8.252;2023-05-19T07:49:37;102691.09;;;15.57;64.84
58243;BME280;50118;53.232;8.252;2023-05-19T07:52:06;102698.09;;;15.27;65.52
58243;BME280;50118;53.232;8.252;2023-05-19T07:54:34;102694.53;;;16.83;61.72
58243;BME280;50118;53.232;8.252;2023-05-19T07:57:15;102691.63;;;17.25;56.93
58243;BME280;50118;53.232;8.252;2023-05-19T07:59:46;102693.84;;;16.50;60.09
58243;BME280;50118;53.232;8.252;2023-05-19T08:02:20;102679.84;;;17.45;57.82
58243;BME280;50118;53.232;8.252;2023-05-19T08:04:49;102696.03;;;16.25;61.96
58243;BME280;50118;53.232;8.252;2023-05-19T08:07:20;102682.22;;;15.78;65.03
58243;BME280;50118;53.232;8.252;2023-05-19T08:09:51;102685.59;;;17.60;57.64
58243;BME280;50118;53.232;8.252;2023-05-19T08:12:20;102682.06;;;17.60;57.83
58243;BME280;50118;53.232;8.252;2023-05-19T08:14:53;102681.44;;;18.05;55.62
58243;BME280;50118;53.232;8.252;2023-05-19T08:17:31;102679.81;;;17.16;56.43
58243;BME280;50118;53.232;8.252;2023-05-19T08:19:59;102673.53;;;17.94;55.44
58243;BME280;50118;53.232;8.252;2023-05-19T08:23:11;102681.34;;;18.80;51.36
58243;BME280;50118;53.232;8.252;2023-05-19T08:25:17;102687.59;;;18.25;54.62
58243;BME280;50118;53.232;8.252;2023-05-19T08:27:49;102681.16;;;19.09;51.00
58243;BME280;50118;53.232;8.252;2023-05-19T08:30:15;102679.66;;;19.15;49.63
58243;BME280;50118;53.232;8.252;2023-05-19T08:32:50;102687.13;;;18.57;53.33
58243;BME280;50118;53.232;8.252;2023-05-19T08:35:15;102675.75;;;18.63;52.40
58243;BME280;50118;53.232;8.252;2023-05-19T08:37:42;102670.66;;;18.05;56.99
58243;BME280;50118;53.232;8.252;2023-05-19T08:40:15;102684.44;;;18.29;56.91
58243;BME280;50118;53.232;8.252;2023-05-19T08:42:45;102671.34;;;17.01;59.14
58243;BME280;50118;53.232;8.252;2023-05-19T08:45:22;102667.91;;;17.38;60.30
58243;BME280;50118;53.232;8.252;2023-05-19T08:47:53;102668.69;;;17.87;59.80
58243;BME280;50118;53.232;8.252;2023-05-19T08:50:29;102665.81;;;18.82;54.60
58243;BME280;50118;53.232;8.252;2023-05-19T08:53:06;102662.16;;;17.80;56.59
58243;BME280;50118;53.232;8.252;2023-05-19T08:55:39;102656.38;;;17.75;57.75
58243;BME280;50118;53.232;8.252;2023-05-19T08:58:10;102664.50;;;18.40;55.39
58243;BME280;50118;53.232;8.252;2023-05-19T09:00:39;102658.00;;;16.90;59.06
58243;BME280;50118;53.232;8.252;2023-05-19T09:03:06;102654.78;;;17.92;56.96
58243;BME280;50118;53.232;8.252;2023-05-19T09:05:31;102657.72;;;18.82;53.65
58243;BME280;50118;53.232;8.252;2023-05-19T09:07:57;102656.88;;;17.02;62.32
58243;BME280;50118;53.232;8.252;2023-05-19T09:10:26;102660.34;;;18.18;56.88
58243;BME280;50118;53.232;8.252;2023-05-19T09:12:52;102651.50;;;18.36;55.23
58243;BME280;50118;53.232;8.252;2023-05-19T09:15:18;102641.09;;;17.66;56.58
58243;BME280;50118;53.232;8.252;2023-05-19T09:17:45;102643.47;;;17.69;58.26
58243;BME280;50118;53.232;8.252;2023-05-19T09:20:12;102633.31;;;17.43;59.41
58243;BME280;50118;53.232;8.252;2023-05-19T09:22:47;102645.25;;;19.17;52.44
58243;BME280;50118;53.232;8.252;2023-05-19T09:25:21;102642.66;;;17.59;55.48
58243;BME280;50118;53.232;8.252;2023-05-19T09:31:10;102633.38;;;19.10;53.12
58243;BME280;50118;53.232;8.252;2023-05-19T09:33:37;102628.31;;;20.11;49.19
58243;BME280;50118;53.232;8.252;2023-05-19T09:36:03;102625.56;;;20.03;47.35
58243;BME280;50118;53.232;8.252;2023-05-19T09:38:38;102625.44;;;18.44;53.67
58243;BME280;50118;53.232;8.252;2023-05-19T09:41:05;102629.38;;;18.50;54.71
58243;BME280;50118;53.232;8.252;2023-05-19T09:43:32;102617.13;;;20.06;48.64
58243;BME280;50118;53.232;8.252;2023-05-19T09:48:39;102608.81;;;17.94;53.93
58243;BME280;50118;53.232;8.252;2023-05-19T09:51:06;102606.81;;;19.23;52.36
58243;BME280;50118;53.232;8.252;2023-05-19T09:53:34;102612.97;;;19.33;50.42
58243;BME280;50118;53.232;8.252;2023-05-19T09:56:00;102608.06;;;17.54;54.91
58243;BME280;50118;53.232;8.252;2023-05-19T09:58:30;102607.88;;;18.58;54.15
58243;BME280;50118;53.232;8.252;2023-05-19T10:00:57;102609.59;;;18.59;52.17
58243;BME280;50118;53.232;8.252;2023-05-19T10:03:24;102605.44;;;17.82;54.13
58243;BME280;50118;53.232;8.252;2023-05-19T10:05:52;102608.69;;;17.28;53.99
58243;BME280;50118;53.232;8.252;2023-05-19T10:08:24;102603.81;;;17.51;54.67
58243;BME280;50118;53.232;8.252;2023-05-19T10:11:00;102601.34;;;17.01;56.41
58243;BME280;50118;53.232;8.252;2023-05-19T10:13:28;102601.16;;;18.62;52.37
58243;BME280;50118;53.232;8.252;2023-05-19T10:15:54;102597.81;;;17.67;54.54
58243;BME280;50118;53.232;8.252;2023-05-19T10:18:21;102609.13;;;19.18;52.61
58243;BME280;50118;53.232;8.252;2023-05-19T10:20:51;102601.75;;;18.84;51.64
58243;BME280;50118;53.232;8.252;2023-05-19T10:23:17;102596.53;;;19.53;49.09
58243;BME280;50118;53.232;8.252;2023-05-19T10:25:43;102594.19;;;20.19;44.34
58243;BME280;50118;53.232;8.252;2023-05-19T10:28:12;102579.94;;;20.08;46.43
58243;BME280;50118;53.232;8.252;2023-05-19T10:30:46;102586.22;;;21.09;42.99
58243;BME280;50118;53.232;8.252;2023-05-19T10:33:15;102590.53;;;19.67;47.23
58243;BME280;50118;53.232;8.252;2023-05-19T10:38:32;102580.41;;;19.17;44.91
58243;BME280;50118;53.232;8.252;2023-05-19T10:41:13;102573.28;;;20.37;43.75
58243;BME280;50118;53.232;8.252;2023-05-19T10:46:16;102570.63;;;21.27;39.53
58243;BME280;50118;53.232;8.252;2023-05-19T10:48:44;102571.31;;;20.80;41.13
58243;BME280;50118;53.232;8.252;2023-05-19T10:51:10;102552.34;;;20.72;44.43
58243;BME280;50118;53.232;8.252;2023-05-19T10:53:42;102556.25;;;19.94;45.47
58243;BME280;50118;53.232;8.252;2023-05-19T10:56:11;102572.34;;;20.79;38.69
58243;BME280;50118;53.232;8.252;2023-05-19T10:58:52;102567.13;;;22.14;35.25
58243;BME280;50118;53.232;8.252;2023-05-19T11:01:18;102561.78;;;20.51;41.78
58243;BME280;50118;53.232;8.252;2023-05-19T11:06:33;102566.91;;;21.29;39.77
58243;BME280;50118;53.232;8.252;2023-05-19T11:09:17;102560.66;;;21.84;39.60
58243;BME280;50118;53.232;8.252;2023-05-19T11:11:51;102564.91;;;20.06;41.56
58243;BME280;50118;53.232;8.252;2023-05-19T11:14:21;102561.75;;;19.58;40.78
58243;BME280;50118;53.232;8.252;2023-05-19T11:16:49;102552.56;;;19.16;42.53
58243;BME280;50118;53.232;8.252;2023-05-19T11:19:28;102553.31;;;18.64;44.06
58243;BME280;50118;53.232;8.252;2023-05-19T11:21:55;102550.22;;;18.95;45.78
58243;BME280;50118;53.232;8.252;2023-05-19T11:29:51;102564.56;;;18.60;44.23
58243;BME280;50118;53.232;8.252;2023-05-19T11:32:17;102559.91;;;18.52;44.43
58243;BME280;50118;53.232;8.252;2023-05-19T11:34:44;102555.47;;;18.97;43.77
58243;BME280;50118;53.232;8.252;2023-05-19T11:37:11;102549.13;;;18.88;44.57
58243;BME280;50118;53.232;8.252;2023-05-19T11:39:38;102544.84;;;20.25;40.16
58243;BME280;50118;53.232;8.252;2023-05-19T11:42:03;102558.22;;;18.51;41.21
58243;BME280;50118;53.232;8.252;2023-05-19T11:44:30;102530.88;;;20.79;37.59
58243;BME280;50118;53.232;8.252;2023-05-19T11:46:57;102540.69;;;20.80;36.49
58243;BME280;50118;53.232;8.252;2023-05-19T11:49:23;102549.91;;;19.51;39.84
58243;BME280;50118;53.232;8.252;2023-05-19T11:51:51;102551.81;;;18.52;41.62
58243;BME280;50118;53.232;8.252;2023-05-19T11:54:18;102544.19;;;20.39;37.07
58243;BME280;50118;53.232;8.252;2023-05-19T11:56:43;102544.06;;;20.82;35.97
58243;BME280;50118;53.232;8.252;2023-05-19T11:59:09;102539.81;;;21.12;35.75
58243;BME280;50118;53.232;8.252;2023-05-19T12:01:35;102531.72;;;20.71;37.53
58243;BME280;50118;53.232;8.252;2023-05-19T12:04:01;102544.56;;;21.18;38.49
58243;BME280;50118;53.232;8.252;2023-05-19T12:06:27;102539.09;;;20.36;40.19
58243;BME280;50118;53.232;8.252;2023-05-19T12:08:54;102529.63;;;20.57;39.05
58243;BME280;50118;53.232;8.252;2023-05-19T12:11:19;102523.66;;;19.69;42.10
58243;BME280;50118;53.232;8.252;2023-05-19T12:13:46;102529.50;;;19.56;39.38
58243;BME280;50118;53.232;8.252;2023-05-19T12:16:12;102527.72;;;18.87;40.10
58243;BME280;50118;53.232;8.252;2023-05-19T12:18:40;102536.41;;;19.25;40.44
58243;BME280;50118;53.232;8.252;2023-05-19T12:21:06;102524.06;;;19.22;39.07
58243;BME280;50118;53.232;8.252;2023-05-19T12:23:32;102534.19;;;19.20;39.01
58243;BME280;50118;53.232;8.252;2023-05-19T12:25:58;102528.16;;;18.82;39.18
58243;BME280;50118;53.232;8.252;2023-05-19T12:28:33;102532.41;;;18.66;39.72
58243;BME280;50118;53.232;8.252;2023-05-19T12:31:13;102522.97;;;18.71;39.86
58243;BME280;50118;53.232;8.252;2023-05-19T12:33:48;102515.44;;;19.18;40.32
58243;BME280;50118;53.232;8.252;2023-05-19T12:36:16;102519.19;;;19.26;39.03
58243;BME280;50118;53.232;8.252;2023-05-19T12:38:43;102511.53;;;19.47;37.31
58243;BME280;50118;53.232;8.252;2023-05-19T12:41:10;102518.97;;;18.57;39.79
58243;BME280;50118;53.232;8.252;2023-05-19T12:43:45;102526.91;;;18.22;41.97
58243;BME280;50118;53.232;8.252;2023-05-19T12:46:14;102520.13;;;17.63;42.99
58243;BME280;50118;53.232;8.252;2023-05-19T12:48:46;102509.38;;;18.54;43.12
58243;BME280;50118;53.232;8.252;2023-05-19T12:51:20;102505.03;;;18.61;41.78
58243;BME280;50118;53.232;8.252;2023-05-19T12:53:52;102498.88;;;18.51;42.27
58243;BME280;50118;53.232;8.252;2023-05-19T12:56:20;102495.03;;;19.93;37.77
58243;BME280;50118;53.232;8.252;2023-05-19T12:58:46;102496.53;;;20.71;35.36
58243;BME280;50118;53.232;8.252;2023-05-19T13:01:16;102502.84;;;20.12;38.46
58243;BME280;50118;53.232;8.252;2023-05-19T13:03:41;102496.81;;;20.51;37.61
58243;BME280;50118;53.232;8.252;2023-05-19T13:06:07;102499.03;;;20.31;37.99
58243;BME280;50118;53.232;8.252;2023-05-19T13:08:33;102493.44;;;20.99;38.62
58243;BME280;50118;53.232;8.252;2023-05-19T13:10:59;102490.28;;;19.87;39.19
58243;BME280;50118;53.232;8.252;2023-05-19T13:13:26;102495.28;;;19.73;39.78
58243;BME280;50118;53.232;8.252;2023-05-19T13:15:51;102486.91;;;19.16;39.57
58243;BME280;50118;53.232;8.252;2023-05-19T13:18:18;102480.75;;;18.61;40.25
58243;BME280;50118;53.232;8.252;2023-05-19T13:20:46;102465.09;;;18.47;41.05
58243;BME280;50118;53.232;8.252;2023-05-19T13:23:17;102474.34;;;19.07;39.04
58243;BME280;50118;53.232;8.252;2023-05-19T13:25:45;102476.78;;;19.95;37.75
58243;BME280;50118;53.232;8.252;2023-05-19T13:28:22;102479.63;;;19.16;38.91
58243;BME280;50118;53.232;8.252;2023-05-19T13:30:48;102486.00;;;18.45;43.40
58243;BME280;50118;53.232;8.252;2023-05-19T13:33:15;102490.53;;;18.62;40.59
58243;BME280;50118;53.232;8.252;2023-05-19T13:35:46;102477.78;;;18.73;41.63
58243;BME280;50118;53.232;8.252;2023-05-19T13:38:15;102471.84;;;19.39;38.59
58243;BME280;50118;53.232;8.252;2023-05-19T13:40:43;102474.59;;;19.21;37.19
58243;BME280;50118;53.232;8.252;2023-05-19T13:43:15;102482.06;;;19.01;38.41
58243;BME280;50118;53.232;8.252;2023-05-19T13:45:52;102474.06;;;18.29;40.50
58243;BME280;50118;53.232;8.252;2023-05-19T13:48:21;102477.94;;;18.89;39.76
58243;BME280;50118;53.232;8.252;2023-05-19T13:50:57;102479.59;;;17.82;42.32
58243;BME280;50118;53.232;8.252;2023-05-19T13:53:23;102472.56;;;17.99;40.93
58243;BME280;50118;53.232;8.252;2023-05-19T13:56:09;102475.88;;;18.11;42.46
58243;BME280;50118;53.232;8.252;2023-05-19T13:58:58;102472.34;;;18.28;41.36
58243;BME280;50118;53.232;8.252;2023-05-19T14:01:32;102456.50;;;19.14;39.90
58243;BME280;50118;53.232;8.252;2023-05-19T14:04:00;102456.09;;;18.38;40.26
58243;BME280;50118;53.232;8.252;2023-05-19T14:06:27;102449.72;;;19.10;39.38